createdAt,value
2023-01-19T00:00:49.318Z,6.69
2023-01-19T00:06:52.056Z,6.40
2023-01-19T00:12:54.498Z,6.64
2023-01-19T00:18:57.959Z,5.60
2023-01-19T00:25:04.428Z,5.59
2023-01-19T00:31:06.955Z,6.69
2023-01-19T00:37:12.376Z,6.39
2023-01-19T00:43:14.853Z,6.45
2023-01-19T00:49:17.295Z,6.32
2023-01-19T00:55:19.748Z,6.38
2023-01-19T01:01:22.382Z,6.50
2023-01-19T01:07:50.962Z,6.59
2023-01-19T01:13:53.137Z,6.54
2023-01-19T01:19:55.752Z,6.67
2023-01-19T01:25:58.220Z,6.28
2023-01-19T01:32:03.692Z,6.60
2023-01-19T01:38:07.134Z,6.28
2023-01-19T01:44:50.777Z,6.39
2023-01-19T01:51:20.991Z,6.53
2023-01-19T01:57:23.834Z,6.63
2023-01-19T02:03:28.308Z,6.51
2023-01-19T02:09:55.844Z,6.39
2023-01-19T02:16:02.334Z,6.57
2023-01-19T02:22:20.834Z,6.62
2023-01-19T02:28:23.286Z,6.78
2023-01-19T02:34:25.171Z,6.67
2023-01-19T02:40:29.216Z,6.74
2023-01-19T02:46:35.692Z,6.83
2023-01-19T02:52:38.799Z,6.78
2023-01-19T02:58:55.635Z,6.70
2023-01-19T03:05:07.143Z,6.53
2023-01-19T03:11:12.589Z,6.69
2023-01-19T03:17:20.081Z,6.51
2023-01-19T03:23:28.549Z,6.52
2023-01-19T03:29:38.029Z,6.64
2023-01-19T03:35:48.513Z,6.00
2023-01-19T03:41:55.995Z,6.47
2023-01-19T03:48:00.499Z,6.45
2023-01-19T03:54:02.961Z,6.29
2023-01-19T04:00:06.450Z,6.34
2023-01-19T04:06:12.692Z,6.01
2023-01-19T04:12:15.421Z,6.17
2023-01-19T04:18:17.884Z,6.30
2023-01-19T04:24:20.411Z,6.30
2023-01-19T04:30:23.806Z,6.25
2023-01-19T04:36:26.265Z,5.11
2023-01-19T04:42:28.728Z,6.38
2023-01-19T04:48:31.166Z,5.90
2023-01-19T04:54:33.711Z,6.31
2023-01-19T05:00:37.114Z,6.38
2023-01-19T05:06:39.547Z,5.93
2023-01-19T05:12:43.028Z,5.57
2023-01-19T05:18:45.473Z,5.50
2023-01-19T05:24:47.924Z,5.67
2023-01-19T05:30:53.062Z,5.79
2023-01-19T05:36:55.853Z,5.72
2023-01-19T05:43:01.881Z,5.36
2023-01-19T05:49:05.758Z,5.85
2023-01-19T05:55:08.119Z,5.66
2023-01-19T06:01:11.726Z,4.97
2023-01-19T06:07:14.187Z,5.21
2023-01-19T06:13:16.654Z,5.29
2023-01-19T06:19:19.120Z,5.73
2023-01-19T06:25:24.151Z,5.66
2023-01-19T06:31:27.067Z,6.10
2023-01-19T06:37:31.544Z,6.30
2023-01-19T06:43:33.974Z,6.22
2023-01-19T06:49:36.440Z,6.27
2023-01-19T06:55:40.103Z,6.77
2023-01-19T07:01:42.410Z,6.27
2023-01-19T07:07:45.791Z,6.52
2023-01-19T07:13:51.866Z,7.10
2023-01-19T07:19:54.735Z,7.43
2023-01-19T07:25:59.227Z,7.62
2023-01-19T07:32:04.607Z,7.84
2023-01-19T07:38:07.109Z,7.98
2023-01-19T07:44:12.594Z,8.34
2023-01-19T07:50:17.066Z,8.64
2023-01-19T07:56:23.538Z,8.79
2023-01-19T08:02:27.079Z,9.41
2023-01-19T08:08:30.480Z,9.51
2023-01-19T08:14:34.974Z,10.04
2023-01-19T08:20:37.399Z,10.57
2023-01-19T08:26:39.863Z,10.91
2023-01-19T08:32:42.349Z,11.34
2023-01-19T08:38:48.805Z,11.70
2023-01-19T08:44:58.654Z,12.29
2023-01-19T08:51:01.793Z,12.31
2023-01-19T08:57:06.261Z,12.52
2023-01-19T09:03:11.344Z,12.97
2023-01-19T09:09:17.164Z,12.34
2023-01-19T09:15:19.652Z,13.18
2023-01-19T09:21:25.122Z,12.48
2023-01-19T09:27:27.622Z,13.58
2023-01-19T09:33:30.070Z,13.78
2023-01-19T09:39:32.608Z,14.03
2023-01-19T09:45:53.062Z,13.96
2023-01-19T09:51:57.678Z,13.61
2023-01-19T09:58:00.303Z,14.23
2023-01-19T10:04:31.640Z,14.42
2023-01-19T10:10:35.184Z,15.02
2023-01-19T10:17:06.655Z,15.35
2023-01-19T10:23:26.199Z,15.56
2023-01-19T10:29:41.502Z,16.04
2023-01-19T10:35:46.180Z,16.49
2023-01-19T10:41:56.676Z,16.44
2023-01-19T10:48:06.173Z,16.44
2023-01-19T10:54:14.787Z,16.35
2023-01-19T11:00:42.309Z,16.60
2023-01-19T11:06:47.740Z,16.94
2023-01-19T11:13:04.697Z,17.03
2023-01-19T11:19:18.783Z,17.15
2023-01-19T11:25:29.280Z,17.14
2023-01-19T11:31:37.829Z,17.27
2023-01-19T11:37:48.900Z,17.65
2023-01-19T11:43:57.776Z,17.53
2023-01-19T11:50:24.326Z,17.64
2023-01-19T11:56:29.813Z,17.49
2023-01-19T12:02:45.304Z,17.73
2023-01-19T12:09:16.045Z,16.44
2023-01-19T12:15:32.389Z,17.35
2023-01-19T12:21:38.885Z,17.18
2023-01-19T12:27:44.383Z,17.53
2023-01-19T12:33:47.843Z,17.60
2023-01-19T12:39:50.268Z,17.44
2023-01-19T12:45:52.754Z,17.53
2023-01-19T12:52:21.299Z,17.42
2023-01-19T12:58:28.715Z,16.85
2023-01-19T13:04:41.118Z,17.05
2023-01-19T13:11:05.303Z,17.38
2023-01-19T13:17:22.260Z,17.40
2023-01-19T13:23:51.970Z,17.28
2023-01-19T13:29:56.348Z,17.26
2023-01-19T13:36:01.056Z,17.24
2023-01-19T13:42:14.455Z,17.24
2023-01-19T13:48:20.910Z,17.06
2023-01-19T13:54:26.449Z,16.99
2023-01-19T14:00:31.901Z,16.75
2023-01-19T14:06:38.409Z,16.62
2023-01-19T14:12:54.453Z,16.40
2023-01-19T14:19:03.384Z,16.10
2023-01-19T14:25:51.021Z,16.07
2023-01-19T14:32:03.529Z,16.13
2023-01-19T14:38:08.970Z,15.92
2023-01-19T14:44:17.451Z,15.54
2023-01-19T14:50:27.475Z,14.86
2023-01-19T14:56:34.330Z,14.71
2023-01-19T15:02:38.895Z,13.08
2023-01-19T15:08:41.385Z,13.70
2023-01-19T15:14:50.634Z,13.71
2023-01-19T15:20:54.333Z,13.69
2023-01-19T15:27:02.870Z,13.48
2023-01-19T15:33:23.396Z,13.20
2023-01-19T15:39:26.615Z,12.92
2023-01-19T15:45:39.368Z,12.00
2023-01-19T15:51:42.821Z,12.16
2023-01-19T15:57:46.899Z,12.30
2023-01-19T16:03:50.820Z,12.37
2023-01-19T16:09:53.240Z,12.06
2023-01-19T16:16:02.628Z,12.22
2023-01-19T16:22:06.190Z,12.48
2023-01-19T16:28:19.158Z,12.15
2023-01-19T16:34:21.164Z,11.86
2023-01-19T16:40:23.619Z,11.71
2023-01-19T16:46:35.542Z,11.62
2023-01-19T16:52:40.628Z,10.80
2023-01-19T16:58:44.284Z,11.30
2023-01-19T17:04:45.991Z,11.35
2023-01-19T17:10:50.551Z,11.38
2023-01-19T17:16:52.343Z,11.60
2023-01-19T17:22:54.139Z,11.47
2023-01-19T17:29:05.366Z,11.21
2023-01-19T17:35:13.325Z,10.98
2023-01-19T17:41:20.352Z,11.22
2023-01-19T17:47:27.384Z,11.35
2023-01-19T17:53:31.279Z,10.55
2023-01-19T17:59:36.079Z,11.07
2023-01-19T18:05:38.200Z,10.22
2023-01-19T18:11:42.687Z,10.56
2023-01-19T18:17:48.508Z,10.79
2023-01-19T18:23:51.268Z,10.88
2023-01-19T18:29:54.083Z,10.87
2023-01-19T18:35:56.551Z,11.09
2023-01-19T18:41:58.632Z,11.34
2023-01-19T18:48:18.708Z,11.23
2023-01-19T18:54:20.997Z,11.47
2023-01-19T19:00:23.486Z,11.39
2023-01-19T19:06:27.227Z,11.20
2023-01-19T19:12:33.393Z,11.31
2023-01-19T19:18:38.883Z,11.51
2023-01-19T19:24:41.364Z,11.11
2023-01-19T19:30:43.875Z,10.54
2023-01-19T19:36:46.585Z,11.27
2023-01-19T19:42:51.772Z,11.23
2023-01-19T19:48:54.323Z,11.11
2023-01-19T19:55:01.612Z,10.89
2023-01-19T20:01:15.274Z,11.05
2023-01-19T20:07:18.654Z,10.35
2023-01-19T20:13:25.098Z,11.08
2023-01-19T20:19:31.755Z,11.02
2023-01-19T20:25:42.106Z,11.52
2023-01-19T20:31:51.613Z,11.38
2023-01-19T20:37:54.080Z,11.20
2023-01-19T20:43:56.543Z,11.39
2023-01-19T20:50:01.275Z,11.48
2023-01-19T20:56:12.546Z,11.64
2023-01-19T21:02:18.081Z,11.35
2023-01-19T21:08:24.678Z,11.18
2023-01-19T21:14:27.038Z,11.52
2023-01-19T21:20:32.478Z,11.47
2023-01-19T21:26:34.936Z,11.53
2023-01-19T21:32:37.497Z,11.97
2023-01-19T21:38:39.884Z,11.39
2023-01-19T21:44:42.382Z,10.94
2023-01-19T21:50:45.860Z,11.43
2023-01-19T21:56:50.791Z,11.22
2023-01-19T22:03:03.425Z,11.21
2023-01-19T22:09:07.256Z,11.25
2023-01-19T22:15:12.910Z,11.20
2023-01-19T22:21:24.204Z,11.16
2023-01-19T22:27:26.644Z,11.03
2023-01-19T22:33:29.166Z,11.17
2023-01-19T22:39:31.656Z,10.85
2023-01-19T22:45:34.104Z,10.63
2023-01-19T22:51:36.415Z,10.61
2023-01-19T22:57:40.002Z,10.47
2023-01-19T23:03:44.483Z,10.76
2023-01-19T23:09:46.947Z,10.53
2023-01-19T23:15:51.885Z,10.67
2023-01-19T23:21:53.878Z,10.63
2023-01-19T23:27:56.309Z,10.09
2023-01-19T23:34:02.744Z,10.53
2023-01-19T23:40:06.306Z,10.52
2023-01-19T23:46:12.792Z,10.53
2023-01-19T23:52:15.223Z,10.32
2023-01-19T23:58:21.853Z,10.29
